CheckWX is a tool to help pilots better visualize weather data.  It is not intended as a substitute for an official pre-flight weather briefing.

12:21:43 UTC

CYCO METAR
Kugluktuk Airport
Kugluktuk, Canada
Current

22 mins ago

CYCO 221200Z 24019KT 8SM IC DRSN BKN023 BKN077 BKN100 M26/M29 A2993 RMK SC5AC1AS1 AC TR SLP139
Observed
Feb-22 @ 12:00 UTC
Wind
  • 240° at 19 KTS
Visibility
8 SM
Flight Rules
MVFR
Conditions
Ice crystals, Low drifting Snow
Cloud Levels
  • Broken at 2,300' AGL
  • Broken at 7,700' AGL
  • Broken at 10,000' AGL
Temperature
-26°C / -15°F
Dewpoint
-29°C / -20°F
Humidity
76%
Altimeter
29.93" Hg
Pressure
1013.9 hPa
Previous

1 hour ago

CYCO 221100Z 23015KT 10SM IC DRSN FEW040 SCT110 M27/M31 A2993 RMK SC1AS2 SLP139
Observed
Feb-22 @ 11:00 UTC
Wind
  • 230° at 15 KTS
Visibility
10 SM
Flight Rules
VFR
Conditions
Ice crystals, Low drifting Snow
Cloud Levels
  • Few at 4,000' AGL
  • Scattered at 11,000' AGL
Temperature
-27°C / -17°F
Dewpoint
-31°C / -24°F
Humidity
69%
Altimeter
29.93" Hg
Pressure
1013.9 hPa
Previous

2 hours ago

CYCO 221000Z 23011KT 15SM IC FEW040 SCT120 M28/M31 A2993 RMK SC1AS2 FROIN SLP142
Observed
Feb-22 @ 10:00 UTC
Wind
  • 230° at 11 KTS
Visibility
15 SM
Flight Rules
VFR
Conditions
Ice crystals
Cloud Levels
  • Few at 4,000' AGL
  • Scattered at 12,000' AGL
Temperature
-28°C / -18°F
Dewpoint
-31°C / -24°F
Humidity
75%
Altimeter
29.93" Hg
Pressure
1014.2 hPa